createdAt,value
2022-12-11T00:00:23.714Z,33.30
2022-12-11T00:10:23.755Z,28.50
2022-12-11T00:20:23.733Z,31.80
2022-12-11T00:30:23.732Z,30.20
2022-12-11T00:40:23.778Z,29.60
2022-12-11T00:50:23.776Z,29.80
2022-12-11T01:00:23.750Z,28.70
2022-12-11T01:10:23.786Z,30.10
2022-12-11T01:20:23.823Z,28.30
2022-12-11T01:30:23.776Z,29.70
2022-12-11T01:50:23.780Z,28.30
2022-12-11T02:00:23.814Z,29.40
2022-12-11T02:10:23.802Z,28.10
2022-12-11T02:20:23.825Z,27.90
2022-12-11T02:30:23.791Z,28.20
2022-12-11T02:40:23.781Z,29.50
2022-12-11T02:50:23.799Z,27.90
2022-12-11T03:00:23.770Z,28.10
2022-12-11T03:10:23.785Z,25.10
2022-12-11T03:20:23.817Z,27.20
2022-12-11T03:30:23.871Z,28.80
2022-12-11T03:40:23.792Z,26.00
2022-12-11T03:50:23.819Z,29.30
2022-12-11T04:00:23.933Z,27.00
2022-12-11T04:10:23.818Z,28.00
2022-12-11T04:20:23.803Z,28.00
2022-12-11T04:30:26.920Z,25.90
2022-12-11T04:40:23.824Z,25.90
2022-12-11T04:50:23.839Z,25.90
2022-12-11T05:00:23.924Z,24.10
2022-12-11T05:10:23.834Z,23.20
2022-12-11T05:20:23.818Z,26.40
2022-12-11T05:30:23.820Z,23.60
2022-12-11T05:40:23.931Z,21.60
2022-12-11T05:50:23.949Z,21.60
2022-12-11T06:00:23.849Z,20.90
2022-12-11T06:10:23.834Z,23.70
2022-12-11T06:20:23.830Z,23.50
2022-12-11T06:30:23.830Z,22.70
2022-12-11T06:40:23.884Z,21.80
2022-12-11T06:50:23.847Z,21.10
2022-12-11T07:00:23.880Z,21.40
2022-12-11T07:10:23.894Z,20.50
2022-12-11T07:20:23.851Z,23.40
2022-12-11T07:30:23.972Z,21.20
2022-12-11T07:40:23.859Z,20.50
2022-12-11T07:50:24.002Z,21.30
2022-12-11T08:00:23.907Z,21.30
2022-12-11T08:10:23.876Z,21.10
2022-12-11T08:20:23.869Z,21.30
2022-12-11T08:30:23.958Z,21.40
2022-12-11T08:40:24.030Z,21.60
2022-12-11T08:50:23.954Z,20.00
2022-12-11T09:00:23.884Z,18.70
2022-12-11T09:10:23.892Z,20.40
2022-12-11T09:20:23.940Z,20.30
2022-12-11T09:30:23.910Z,17.70
2022-12-11T09:40:23.918Z,18.70
2022-12-11T09:50:23.940Z,21.00
2022-12-11T10:00:23.936Z,21.60
2022-12-11T10:10:23.934Z,20.40
2022-12-11T10:20:23.914Z,19.40
2022-12-11T10:30:23.934Z,18.00
2022-12-11T10:40:23.919Z,17.50
2022-12-11T10:50:23.920Z,17.50
2022-12-11T11:00:23.911Z,21.20
2022-12-11T11:10:23.956Z,18.20
2022-12-11T11:20:23.959Z,17.90
2022-12-11T11:30:23.959Z,16.80
2022-12-11T11:40:23.955Z,17.40
2022-12-11T11:50:23.932Z,19.20
2022-12-11T12:00:27.492Z,18.30
2022-12-11T12:10:24.116Z,18.60
2022-12-11T12:20:23.944Z,18.10
2022-12-11T12:30:24.366Z,17.70
2022-12-11T12:40:23.977Z,15.50
2022-12-11T12:50:23.977Z,16.60
2022-12-11T13:00:23.999Z,17.80
2022-12-11T13:10:23.962Z,14.30
2022-12-11T13:20:23.970Z,15.90
2022-12-11T13:30:23.988Z,17.10
2022-12-11T13:40:23.991Z,17.00
2022-12-11T13:50:24.020Z,15.20
2022-12-11T14:00:24.013Z,17.00
2022-12-11T14:10:24.126Z,16.50
2022-12-11T14:20:24.010Z,16.80
2022-12-11T14:30:24.003Z,18.30
2022-12-11T14:40:24.030Z,17.40
2022-12-11T14:50:24.021Z,17.50
2022-12-11T15:00:24.029Z,16.50
2022-12-11T15:10:24.008Z,16.70
2022-12-11T15:20:24.001Z,16.70
2022-12-11T15:30:24.029Z,15.40
2022-12-11T15:40:23.992Z,18.40
2022-12-11T15:50:24.006Z,17.60
2022-12-11T16:00:24.096Z,17.50
2022-12-11T16:10:24.157Z,17.70
2022-12-11T16:20:24.128Z,16.70
2022-12-11T16:30:24.040Z,16.60
2022-12-11T16:40:24.032Z,15.90
2022-12-11T16:50:24.055Z,14.90
2022-12-11T17:00:24.029Z,17.40
2022-12-11T17:10:24.044Z,15.20
2022-12-11T17:20:24.075Z,14.70
2022-12-11T17:30:24.114Z,18.90
2022-12-11T17:40:24.108Z,17.70
2022-12-11T18:00:24.621Z,17.70
2022-12-11T18:10:24.098Z,19.10
2022-12-11T18:20:24.209Z,18.40
2022-12-11T18:30:24.223Z,18.90
2022-12-11T18:40:24.201Z,16.60
2022-12-11T18:50:24.167Z,17.70
2022-12-11T19:00:24.259Z,19.00
2022-12-11T19:10:24.192Z,18.80
2022-12-11T19:20:48.013Z,17.30
2022-12-11T19:30:24.156Z,18.50
2022-12-11T19:40:24.305Z,14.70
2022-12-11T19:50:24.406Z,14.10
2022-12-11T20:00:24.151Z,18.60
2022-12-11T20:10:24.158Z,18.00
2022-12-11T20:20:24.162Z,17.70
2022-12-11T20:30:24.138Z,18.90
2022-12-11T20:40:24.173Z,16.30
2022-12-11T20:50:24.192Z,17.00
2022-12-11T21:00:24.183Z,18.40
2022-12-11T21:10:24.134Z,19.20
2022-12-11T21:20:24.185Z,19.40
2022-12-11T21:30:24.183Z,20.70
2022-12-11T21:40:24.164Z,20.50
2022-12-11T21:50:24.122Z,19.40
2022-12-11T22:00:24.158Z,20.10
2022-12-11T22:10:24.161Z,20.90
2022-12-11T22:20:24.175Z,19.00
2022-12-11T22:30:24.162Z,20.20
2022-12-11T22:40:24.149Z,20.00
2022-12-11T22:50:24.168Z,20.60
2022-12-11T23:00:24.147Z,20.60
2022-12-11T23:10:24.164Z,21.20
2022-12-11T23:20:24.189Z,20.80
2022-12-11T23:30:24.194Z,20.70
2022-12-11T23:40:24.158Z,19.00
2022-12-11T23:50:24.163Z,19.80
